sensor_id;sensor_type;location;lat;lon;timestamp;temperature;humidity
13446;DHT22;6795;51.232;3.764;2023-02-15T00:01:17;1.00;99.90
13446;DHT22;6795;51.232;3.764;2023-02-15T00:03:49;0.90;99.90
13446;DHT22;6795;51.232;3.764;2023-02-15T00:06:18;0.70;99.90
13446;DHT22;6795;51.232;3.764;2023-02-15T00:08:46;0.70;99.90
13446;DHT22;6795;51.232;3.764;2023-02-15T00:11:16;0.70;99.90
13446;DHT22;6795;51.232;3.764;2023-02-15T00:14:06;0.70;99.90
13446;DHT22;6795;51.232;3.764;2023-02-15T00:16:35;0.70;99.90
13446;DHT22;6795;51.232;3.764;2023-02-15T00:19:05;0.70;99.90
13446;DHT22;6795;51.232;3.764;2023-02-15T00:21:36;0.60;99.90
13446;DHT22;6795;51.232;3.764;2023-02-15T00:24:06;0.60;99.90
13446;DHT22;6795;51.232;3.764;2023-02-15T00:26:35;0.60;99.90
13446;DHT22;6795;51.232;3.764;2023-02-15T00:29:03;0.60;99.90
13446;DHT22;6795;51.232;3.764;2023-02-15T00:31:33;0.60;99.90
13446;DHT22;6795;51.232;3.764;2023-02-15T00:34:02;0.50;99.90
13446;DHT22;6795;51.232;3.764;2023-02-15T00:36:32;0.50;99.90
13446;DHT22;6795;51.232;3.764;2023-02-15T00:39:01;0.50;99.90
13446;DHT22;6795;51.232;3.764;2023-02-15T00:41:30;0.50;99.90
13446;DHT22;6795;51.232;3.764;2023-02-15T00:43:58;0.40;99.90
13446;DHT22;6795;51.232;3.764;2023-02-15T00:46:28;0.40;99.90
13446;DHT22;6795;51.232;3.764;2023-02-15T00:48:56;0.60;99.90
13446;DHT22;6795;51.232;3.764;2023-02-15T00:51:25;0.80;99.90
13446;DHT22;6795;51.232;3.764;2023-02-15T00:53:55;0.60;99.90
13446;DHT22;6795;51.232;3.764;2023-02-15T00:56:24;0.40;99.90
13446;DHT22;6795;51.232;3.764;2023-02-15T00:58:55;0.30;99.90
13446;DHT22;6795;51.232;3.764;2023-02-15T01:01:23;0.20;99.90
13446;DHT22;6795;51.232;3.764;2023-02-15T01:03:53;0.10;99.90
13446;DHT22;6795;51.232;3.764;2023-02-15T01:06:21;0.10;99.90
13446;DHT22;6795;51.232;3.764;2023-02-15T01:08:49;0.10;99.90
13446;DHT22;6795;51.232;3.764;2023-02-15T01:11:21;0.00;99.90
13446;DHT22;6795;51.232;3.764;2023-02-15T01:13:51;0.20;99.90
13446;DHT22;6795;51.232;3.764;2023-02-15T01:16:20;0.00;99.90
13446;DHT22;6795;51.232;3.764;2023-02-15T01:18:49;-0.10;99.90
13446;DHT22;6795;51.232;3.764;2023-02-15T01:21:19;-0.20;99.90
13446;DHT22;6795;51.232;3.764;2023-02-15T01:23:49;-0.20;99.90
13446;DHT22;6795;51.232;3.764;2023-02-15T01:26:37;-0.10;99.90
13446;DHT22;6795;51.232;3.764;2023-02-15T01:29:05;0.00;99.90
13446;DHT22;6795;51.232;3.764;2023-02-15T01:31:34;0.00;99.90
13446;DHT22;6795;51.232;3.764;2023-02-15T01:34:02;0.00;99.90
13446;DHT22;6795;51.232;3.764;2023-02-15T01:36:33;-0.10;99.90
13446;DHT22;6795;51.232;3.764;2023-02-15T01:39:02;-0.10;99.90
13446;DHT22;6795;51.232;3.764;2023-02-15T01:41:31;-0.10;99.90
13446;DHT22;6795;51.232;3.764;2023-02-15T01:44:02;-0.20;99.90
13446;DHT22;6795;51.232;3.764;2023-02-15T01:46:35;-0.30;99.90
13446;DHT22;6795;51.232;3.764;2023-02-15T01:49:11;-0.30;99.90
13446;DHT22;6795;51.232;3.764;2023-02-15T01:51:41;-0.50;99.90
13446;DHT22;6795;51.232;3.764;2023-02-15T01:54:25;-0.40;99.90
13446;DHT22;6795;51.232;3.764;2023-02-15T01:56:58;-0.20;99.90
13446;DHT22;6795;51.232;3.764;2023-02-15T01:59:32;-0.10;99.90
13446;DHT22;6795;51.232;3.764;2023-02-15T02:02:05;0.10;99.90
13446;DHT22;6795;51.232;3.764;2023-02-15T02:04:41;0.20;99.90
13446;DHT22;6795;51.232;3.764;2023-02-15T02:07:14;0.10;99.90
13446;DHT22;6795;51.232;3.764;2023-02-15T02:09:43;0.10;99.90
13446;DHT22;6795;51.232;3.764;2023-02-15T02:12:12;0.10;99.90
13446;DHT22;6795;51.232;3.764;2023-02-15T02:14:45;0.10;99.90
13446;DHT22;6795;51.232;3.764;2023-02-15T02:17:17;-0.10;99.90
13446;DHT22;6795;51.232;3.764;2023-02-15T02:20:06;-0.10;99.90
13446;DHT22;6795;51.232;3.764;2023-02-15T02:29:42;0.30;99.90
13446;DHT22;6795;51.232;3.764;2023-02-15T02:35:25;0.30;99.90
13446;DHT22;6795;51.232;3.764;2023-02-15T02:38:02;0.10;99.90
13446;DHT22;6795;51.232;3.764;2023-02-15T02:40:46;0.10;99.90
13446;DHT22;6795;51.232;3.764;2023-02-15T02:43:21;0.10;99.90
13446;DHT22;6795;51.232;3.764;2023-02-15T02:45:58;-0.10;99.90
13446;DHT22;6795;51.232;3.764;2023-02-15T02:48:32;-0.20;99.90
13446;DHT22;6795;51.232;3.764;2023-02-15T02:51:02;-0.30;99.90
13446;DHT22;6795;51.232;3.764;2023-02-15T02:53:31;-0.40;99.90
13446;DHT22;6795;51.232;3.764;2023-02-15T02:56:06;-0.50;99.90
13446;DHT22;6795;51.232;3.764;2023-02-15T02:58:43;-0.50;99.90
13446;DHT22;6795;51.232;3.764;2023-02-15T03:01:22;-0.40;99.90
13446;DHT22;6795;51.232;3.764;2023-02-15T03:03:56;-0.40;99.90
13446;DHT22;6795;51.232;3.764;2023-02-15T03:06:32;-0.40;99.90
13446;DHT22;6795;51.232;3.764;2023-02-15T03:09:08;-0.30;99.90
13446;DHT22;6795;51.232;3.764;2023-02-15T03:11:43;-0.20;99.90
13446;DHT22;6795;51.232;3.764;2023-02-15T03:14:13;-0.10;99.90
13446;DHT22;6795;51.232;3.764;2023-02-15T03:16:43;-0.30;99.90
13446;DHT22;6795;51.232;3.764;2023-02-15T03:19:17;-0.30;99.90
13446;DHT22;6795;51.232;3.764;2023-02-15T03:21:51;-0.40;99.90
13446;DHT22;6795;51.232;3.764;2023-02-15T03:24:33;-0.30;99.90
13446;DHT22;6795;51.232;3.764;2023-02-15T03:27:06;-0.40;99.90
13446;DHT22;6795;51.232;3.764;2023-02-15T03:29:37;-0.40;99.90
13446;DHT22;6795;51.232;3.764;2023-02-15T03:32:09;-0.40;99.90
13446;DHT22;6795;51.232;3.764;2023-02-15T03:34:39;-0.50;99.90
13446;DHT22;6795;51.232;3.764;2023-02-15T03:37:13;-0.60;99.90
13446;DHT22;6795;51.232;3.764;2023-02-15T03:39:48;-0.70;99.90
13446;DHT22;6795;51.232;3.764;2023-02-15T03:42:22;-0.80;99.90
13446;DHT22;6795;51.232;3.764;2023-02-15T03:44:57;-0.80;99.90
13446;DHT22;6795;51.232;3.764;2023-02-15T03:47:28;-0.90;99.90
13446;DHT22;6795;51.232;3.764;2023-02-15T03:50:01;-0.70;99.90
13446;DHT22;6795;51.232;3.764;2023-02-15T03:52:53;-0.80;99.90
13446;DHT22;6795;51.232;3.764;2023-02-15T03:55:22;-0.90;99.90
13446;DHT22;6795;51.232;3.764;2023-02-15T03:57:52;-0.90;99.90
13446;DHT22;6795;51.232;3.764;2023-02-15T04:00:44;-1.00;99.90
13446;DHT22;6795;51.232;3.764;2023-02-15T04:03:39;-1.10;99.90
13446;DHT22;6795;51.232;3.764;2023-02-15T04:06:09;-1.10;99.90
13446;DHT22;6795;51.232;3.764;2023-02-15T04:08:39;-1.20;99.90
13446;DHT22;6795;51.232;3.764;2023-02-15T04:11:21;-1.30;99.90
13446;DHT22;6795;51.232;3.764;2023-02-15T04:13:50;-1.20;99.90
13446;DHT22;6795;51.232;3.764;2023-02-15T04:16:23;-1.20;99.90
13446;DHT22;6795;51.232;3.764;2023-02-15T04:18:51;-1.10;99.90
13446;DHT22;6795;51.232;3.764;2023-02-15T04:21:37;-1.00;99.90
13446;DHT22;6795;51.232;3.764;2023-02-15T04:24:24;-1.00;99.90
13446;DHT22;6795;51.232;3.764;2023-02-15T04:27:11;-0.90;99.90
13446;DHT22;6795;51.232;3.764;2023-02-15T04:29:41;-1.00;99.90
13446;DHT22;6795;51.232;3.764;2023-02-15T04:32:09;-0.90;99.90
13446;DHT22;6795;51.232;3.764;2023-02-15T04:34:38;-1.00;99.90
13446;DHT22;6795;51.232;3.764;2023-02-15T04:37:06;-1.10;99.90
13446;DHT22;6795;51.232;3.764;2023-02-15T04:39:36;-1.20;99.90
13446;DHT22;6795;51.232;3.764;2023-02-15T04:42:05;-1.20;99.90
13446;DHT22;6795;51.232;3.764;2023-02-15T04:44:33;-1.20;99.90
13446;DHT22;6795;51.232;3.764;2023-02-15T04:47:02;-1.20;99.90
13446;DHT22;6795;51.232;3.764;2023-02-15T04:49:30;-1.20;99.90
13446;DHT22;6795;51.232;3.764;2023-02-15T04:51:58;-1.20;99.90
13446;DHT22;6795;51.232;3.764;2023-02-15T04:54:27;-1.30;99.90
13446;DHT22;6795;51.232;3.764;2023-02-15T04:56:57;-1.30;99.90
13446;DHT22;6795;51.232;3.764;2023-02-15T04:59:25;-1.30;99.90
13446;DHT22;6795;51.232;3.764;2023-02-15T05:01:54;-1.20;99.90
13446;DHT22;6795;51.232;3.764;2023-02-15T05:04:23;-1.20;99.90
13446;DHT22;6795;51.232;3.764;2023-02-15T05:06:52;-1.10;99.90
13446;DHT22;6795;51.232;3.764;2023-02-15T05:09:20;-1.10;99.90
13446;DHT22;6795;51.232;3.764;2023-02-15T05:11:49;-1.10;99.90
13446;DHT22;6795;51.232;3.764;2023-02-15T05:14:19;-1.00;99.90
13446;DHT22;6795;51.232;3.764;2023-02-15T05:16:47;-1.00;99.90
13446;DHT22;6795;51.232;3.764;2023-02-15T05:19:16;-1.00;99.90
13446;DHT22;6795;51.232;3.764;2023-02-15T05:21:44;-1.00;99.90
13446;DHT22;6795;51.232;3.764;2023-02-15T05:24:13;-1.00;99.90
13446;DHT22;6795;51.232;3.764;2023-02-15T05:27:09;-0.90;99.90
13446;DHT22;6795;51.232;3.764;2023-02-15T05:29:57;-0.70;99.90
13446;DHT22;6795;51.232;3.764;2023-02-15T05:32:26;-0.60;99.90
13446;DHT22;6795;51.232;3.764;2023-02-15T05:34:54;-0.50;99.90
13446;DHT22;6795;51.232;3.764;2023-02-15T05:37:23;-0.50;99.90
13446;DHT22;6795;51.232;3.764;2023-02-15T05:39:51;-0.30;99.90
13446;DHT22;6795;51.232;3.764;2023-02-15T05:42:20;-0.20;99.90
13446;DHT22;6795;51.232;3.764;2023-02-15T05:44:48;0.00;99.90
13446;DHT22;6795;51.232;3.764;2023-02-15T05:47:18;0.00;99.90
13446;DHT22;6795;51.232;3.764;2023-02-15T05:49:47;-0.20;99.90
13446;DHT22;6795;51.232;3.764;2023-02-15T05:52:15;-0.30;99.90
13446;DHT22;6795;51.232;3.764;2023-02-15T05:54:43;-0.30;99.90
13446;DHT22;6795;51.232;3.764;2023-02-15T05:57:12;-0.20;99.90
13446;DHT22;6795;51.232;3.764;2023-02-15T05:59:41;-0.20;99.90
13446;DHT22;6795;51.232;3.764;2023-02-15T06:02:09;-0.20;99.90
13446;DHT22;6795;51.232;3.764;2023-02-15T06:04:39;-0.20;99.90
13446;DHT22;6795;51.232;3.764;2023-02-15T06:07:08;-0.20;99.90
13446;DHT22;6795;51.232;3.764;2023-02-15T06:09:38;-0.20;99.90
13446;DHT22;6795;51.232;3.764;2023-02-15T06:12:07;-0.20;99.90
13446;DHT22;6795;51.232;3.764;2023-02-15T06:14:35;-0.30;99.90
13446;DHT22;6795;51.232;3.764;2023-02-15T06:17:04;-0.30;99.90
13446;DHT22;6795;51.232;3.764;2023-02-15T06:19:32;-0.30;99.90
13446;DHT22;6795;51.232;3.764;2023-02-15T06:22:03;-0.20;99.90
13446;DHT22;6795;51.232;3.764;2023-02-15T06:24:33;-0.30;99.90
13446;DHT22;6795;51.232;3.764;2023-02-15T06:27:01;-0.30;99.90
13446;DHT22;6795;51.232;3.764;2023-02-15T06:29:30;-0.40;99.90
13446;DHT22;6795;51.232;3.764;2023-02-15T06:31:58;-0.40;99.90
13446;DHT22;6795;51.232;3.764;2023-02-15T06:34:27;-0.40;99.90
13446;DHT22;6795;51.232;3.764;2023-02-15T06:36:56;-0.50;99.90
13446;DHT22;6795;51.232;3.764;2023-02-15T06:39:26;-0.50;99.90
13446;DHT22;6795;51.232;3.764;2023-02-15T06:41:54;-0.50;99.90
13446;DHT22;6795;51.232;3.764;2023-02-15T06:44:23;-0.40;99.90
13446;DHT22;6795;51.232;3.764;2023-02-15T06:46:51;-0.30;99.90
13446;DHT22;6795;51.232;3.764;2023-02-15T06:49:19;-0.20;99.90
13446;DHT22;6795;51.232;3.764;2023-02-15T06:51:48;-0.10;99.90
13446;DHT22;6795;51.232;3.764;2023-02-15T06:54:16;-0.10;99.90
13446;DHT22;6795;51.232;3.764;2023-02-15T06:56:46;0.00;99.90
13446;DHT22;6795;51.232;3.764;2023-02-15T06:59:15;0.00;99.90
13446;DHT22;6795;51.232;3.764;2023-02-15T07:01:43;-0.10;99.90
13446;DHT22;6795;51.232;3.764;2023-02-15T07:04:12;-0.10;99.90
13446;DHT22;6795;51.232;3.764;2023-02-15T07:06:40;-0.20;99.90
13446;DHT22;6795;51.232;3.764;2023-02-15T07:09:09;-0.20;99.90
13446;DHT22;6795;51.232;3.764;2023-02-15T07:11:38;-0.10;99.90
13446;DHT22;6795;51.232;3.764;2023-02-15T07:14:25;0.00;99.90
13446;DHT22;6795;51.232;3.764;2023-02-15T07:16:55;0.10;99.90
13446;DHT22;6795;51.232;3.764;2023-02-15T07:19:23;0.10;99.90
13446;DHT22;6795;51.232;3.764;2023-02-15T07:21:51;0.10;99.90
13446;DHT22;6795;51.232;3.764;2023-02-15T07:24:20;0.30;99.90
13446;DHT22;6795;51.232;3.764;2023-02-15T07:26:48;0.30;99.90
13446;DHT22;6795;51.232;3.764;2023-02-15T07:29:17;0.30;99.90
13446;DHT22;6795;51.232;3.764;2023-02-15T07:31:47;0.30;99.90
13446;DHT22;6795;51.232;3.764;2023-02-15T07:34:15;0.40;99.90
13446;DHT22;6795;51.232;3.764;2023-02-15T07:36:44;0.60;99.90
13446;DHT22;6795;51.232;3.764;2023-02-15T07:39:12;0.60;99.90
13446;DHT22;6795;51.232;3.764;2023-02-15T07:41:41;0.70;99.90
13446;DHT22;6795;51.232;3.764;2023-02-15T07:44:11;0.70;99.90
13446;DHT22;6795;51.232;3.764;2023-02-15T07:46:41;0.70;99.90
13446;DHT22;6795;51.232;3.764;2023-02-15T07:49:11;0.70;99.90
13446;DHT22;6795;51.232;3.764;2023-02-15T07:51:40;0.70;99.90
13446;DHT22;6795;51.232;3.764;2023-02-15T07:54:08;0.80;99.90
13446;DHT22;6795;51.232;3.764;2023-02-15T07:56:36;0.80;99.90
13446;DHT22;6795;51.232;3.764;2023-02-15T07:59:05;0.90;99.90
13446;DHT22;6795;51.232;3.764;2023-02-15T08:01:36;0.90;99.90
13446;DHT22;6795;51.232;3.764;2023-02-15T08:04:06;1.00;99.90
13446;DHT22;6795;51.232;3.764;2023-02-15T08:06:38;1.10;99.90
13446;DHT22;6795;51.232;3.764;2023-02-15T08:09:07;1.20;99.90
13446;DHT22;6795;51.232;3.764;2023-02-15T08:11:37;1.20;99.90
13446;DHT22;6795;51.232;3.764;2023-02-15T08:14:08;1.40;99.90
13446;DHT22;6795;51.232;3.764;2023-02-15T08:16:38;1.50;99.90
13446;DHT22;6795;51.232;3.764;2023-02-15T08:19:08;1.50;99.90
13446;DHT22;6795;51.232;3.764;2023-02-15T08:21:40;1.60;99.90
13446;DHT22;6795;51.232;3.764;2023-02-15T08:24:11;1.70;99.90
13446;DHT22;6795;51.232;3.764;2023-02-15T08:26:42;1.80;99.90
13446;DHT22;6795;51.232;3.764;2023-02-15T08:29:12;1.90;99.90
13446;DHT22;6795;51.232;3.764;2023-02-15T08:31:40;2.00;99.90
13446;DHT22;6795;51.232;3.764;2023-02-15T08:34:10;2.30;99.90
13446;DHT22;6795;51.232;3.764;2023-02-15T08:36:40;2.60;99.90
13446;DHT22;6795;51.232;3.764;2023-02-15T08:39:09;2.90;99.90
13446;DHT22;6795;51.232;3.764;2023-02-15T08:41:38;3.30;99.90
13446;DHT22;6795;51.232;3.764;2023-02-15T08:44:08;3.50;99.90
13446;DHT22;6795;51.232;3.764;2023-02-15T08:46:39;3.90;99.90
13446;DHT22;6795;51.232;3.764;2023-02-15T08:49:09;4.20;99.90
13446;DHT22;6795;51.232;3.764;2023-02-15T08:51:39;4.50;99.90
13446;DHT22;6795;51.232;3.764;2023-02-15T08:54:09;4.80;99.90
13446;DHT22;6795;51.232;3.764;2023-02-15T08:56:39;5.00;99.90
13446;DHT22;6795;51.232;3.764;2023-02-15T08:59:13;5.20;99.90
13446;DHT22;6795;51.232;3.764;2023-02-15T09:01:44;5.30;99.90
13446;DHT22;6795;51.232;3.764;2023-02-15T09:04:13;5.50;99.90
13446;DHT22;6795;51.232;3.764;2023-02-15T09:07:04;5.70;99.90
13446;DHT22;6795;51.232;3.764;2023-02-15T09:09:32;5.80;99.90
13446;DHT22;6795;51.232;3.764;2023-02-15T09:12:00;5.90;99.90
13446;DHT22;6795;51.232;3.764;2023-02-15T09:14:29;6.00;99.90
13446;DHT22;6795;51.232;3.764;2023-02-15T09:16:58;6.10;99.90
13446;DHT22;6795;51.232;3.764;2023-02-15T09:19:27;6.20;99.90
13446;DHT22;6795;51.232;3.764;2023-02-15T09:21:56;6.40;99.90
13446;DHT22;6795;51.232;3.764;2023-02-15T09:24:26;6.60;99.90
13446;DHT22;6795;51.232;3.764;2023-02-15T09:26:55;6.70;99.90
13446;DHT22;6795;51.232;3.764;2023-02-15T09:29:23;6.70;99.90
13446;DHT22;6795;51.232;3.764;2023-02-15T09:31:52;6.70;99.90
13446;DHT22;6795;51.232;3.764;2023-02-15T09:34:21;6.90;99.90
13446;DHT22;6795;51.232;3.764;2023-02-15T09:36:50;7.00;99.90
13446;DHT22;6795;51.232;3.764;2023-02-15T09:39:20;7.00;99.90
13446;DHT22;6795;51.232;3.764;2023-02-15T09:42:06;7.10;99.90
13446;DHT22;6795;51.232;3.764;2023-02-15T09:44:50;7.20;99.90
13446;DHT22;6795;51.232;3.764;2023-02-15T09:47:54;7.50;99.90
13446;DHT22;6795;51.232;3.764;2023-02-15T09:50:31;7.70;99.90
13446;DHT22;6795;51.232;3.764;2023-02-15T09:53:18;7.70;99.90
13446;DHT22;6795;51.232;3.764;2023-02-15T09:55:57;7.70;99.90
13446;DHT22;6795;51.232;3.764;2023-02-15T09:58:34;7.80;99.90
13446;DHT22;6795;51.232;3.764;2023-02-15T10:01:11;7.90;99.90
13446;DHT22;6795;51.232;3.764;2023-02-15T10:03:54;8.10;99.90
13446;DHT22;6795;51.232;3.764;2023-02-15T10:06:36;8.20;99.90
13446;DHT22;6795;51.232;3.764;2023-02-15T10:09:20;8.40;99.90
13446;DHT22;6795;51.232;3.764;2023-02-15T10:12:09;8.70;99.90
13446;DHT22;6795;51.232;3.764;2023-02-15T10:15:00;8.70;99.90
13446;DHT22;6795;51.232;3.764;2023-02-15T10:17:44;8.70;99.90
13446;DHT22;6795;51.232;3.764;2023-02-15T10:20:23;8.80;99.90
13446;DHT22;6795;51.232;3.764;2023-02-15T10:23:10;8.90;99.90
13446;DHT22;6795;51.232;3.764;2023-02-15T10:25:46;9.20;99.90
13446;DHT22;6795;51.232;3.764;2023-02-15T10:28:18;9.20;99.90
13446;DHT22;6795;51.232;3.764;2023-02-15T10:30:50;9.30;99.90
13446;DHT22;6795;51.232;3.764;2023-02-15T10:33:38;9.30;99.90
13446;DHT22;6795;51.232;3.764;2023-02-15T10:36:18;9.30;99.90
13446;DHT22;6795;51.232;3.764;2023-02-15T10:38:56;9.30;99.90
13446;DHT22;6795;51.232;3.764;2023-02-15T10:41:36;9.30;99.90
13446;DHT22;6795;51.232;3.764;2023-02-15T10:44:19;9.40;99.90
13446;DHT22;6795;51.232;3.764;2023-02-15T10:47:01;9.40;99.90
13446;DHT22;6795;51.232;3.764;2023-02-15T10:49:52;9.60;99.90
13446;DHT22;6795;51.232;3.764;2023-02-15T10:52:29;9.80;99.90
13446;DHT22;6795;51.232;3.764;2023-02-15T10:55:10;10.10;99.90
13446;DHT22;6795;51.232;3.764;2023-02-15T10:57:51;10.40;99.90
13446;DHT22;6795;51.232;3.764;2023-02-15T11:00:30;10.80;99.90
13446;DHT22;6795;51.232;3.764;2023-02-15T11:03:18;10.90;99.90
13446;DHT22;6795;51.232;3.764;2023-02-15T11:05:56;11.20;99.90
13446;DHT22;6795;51.232;3.764;2023-02-15T11:08:31;11.40;99.90
13446;DHT22;6795;51.232;3.764;2023-02-15T11:11:03;11.50;99.90
13446;DHT22;6795;51.232;3.764;2023-02-15T11:13:38;11.70;99.90
13446;DHT22;6795;51.232;3.764;2023-02-15T11:16:11;11.80;99.90
13446;DHT22;6795;51.232;3.764;2023-02-15T11:18:48;11.90;99.90
13446;DHT22;6795;51.232;3.764;2023-02-15T11:21:22;12.00;99.90
13446;DHT22;6795;51.232;3.764;2023-02-15T11:23:51;12.10;99.90
13446;DHT22;6795;51.232;3.764;2023-02-15T11:26:24;12.30;99.90
13446;DHT22;6795;51.232;3.764;2023-02-15T11:28:58;12.40;99.90
13446;DHT22;6795;51.232;3.764;2023-02-15T11:31:39;12.60;99.90
13446;DHT22;6795;51.232;3.764;2023-02-15T11:34:18;12.70;99.90
13446;DHT22;6795;51.232;3.764;2023-02-15T11:36:50;12.50;99.90
13446;DHT22;6795;51.232;3.764;2023-02-15T11:39:21;12.30;99.90
13446;DHT22;6795;51.232;3.764;2023-02-15T11:41:53;12.30;99.90
13446;DHT22;6795;51.232;3.764;2023-02-15T11:44:26;12.50;99.90
13446;DHT22;6795;51.232;3.764;2023-02-15T11:46:56;12.70;99.90
13446;DHT22;6795;51.232;3.764;2023-02-15T11:49:28;13.10;99.90
13446;DHT22;6795;51.232;3.764;2023-02-15T11:51:58;13.20;99.90
13446;DHT22;6795;51.232;3.764;2023-02-15T11:54:31;13.30;99.90
13446;DHT22;6795;51.232;3.764;2023-02-15T11:57:10;13.40;99.90
13446;DHT22;6795;51.232;3.764;2023-02-15T11:59:42;13.80;99.90
13446;DHT22;6795;51.232;3.764;2023-02-15T12:02:16;13.90;99.90
13446;DHT22;6795;51.232;3.764;2023-02-15T12:04:51;13.90;99.90
13446;DHT22;6795;51.232;3.764;2023-02-15T12:07:24;13.80;99.90
13446;DHT22;6795;51.232;3.764;2023-02-15T12:09:59;13.70;99.90
13446;DHT22;6795;51.232;3.764;2023-02-15T12:12:32;13.60;99.90
13446;DHT22;6795;51.232;3.764;2023-02-15T12:15:04;13.70;99.90
13446;DHT22;6795;51.232;3.764;2023-02-15T12:17:35;13.70;99.90
13446;DHT22;6795;51.232;3.764;2023-02-15T12:20:21;13.80;99.90
13446;DHT22;6795;51.232;3.764;2023-02-15T12:22:55;13.90;99.90
13446;DHT22;6795;51.232;3.764;2023-02-15T12:25:33;14.20;99.90
13446;DHT22;6795;51.232;3.764;2023-02-15T12:28:04;14.50;99.90
13446;DHT22;6795;51.232;3.764;2023-02-15T12:30:46;14.50;99.90
13446;DHT22;6795;51.232;3.764;2023-02-15T12:33:20;14.40;99.90
13446;DHT22;6795;51.232;3.764;2023-02-15T12:35:57;14.50;99.90
13446;DHT22;6795;51.232;3.764;2023-02-15T12:38:28;14.30;99.90
13446;DHT22;6795;51.232;3.764;2023-02-15T12:40:59;14.30;99.90
13446;DHT22;6795;51.232;3.764;2023-02-15T12:43:32;14.30;99.90
13446;DHT22;6795;51.232;3.764;2023-02-15T12:46:19;14.40;99.90
13446;DHT22;6795;51.232;3.764;2023-02-15T12:49:05;14.30;99.90
13446;DHT22;6795;51.232;3.764;2023-02-15T12:51:45;14.30;99.90
13446;DHT22;6795;51.232;3.764;2023-02-15T12:54:33;14.30;99.90
13446;DHT22;6795;51.232;3.764;2023-02-15T12:57:22;14.10;99.90
13446;DHT22;6795;51.232;3.764;2023-02-15T12:59:54;14.00;99.90
13446;DHT22;6795;51.232;3.764;2023-02-15T13:02:27;13.90;99.90
13446;DHT22;6795;51.232;3.764;2023-02-15T13:04:57;13.80;99.90
13446;DHT22;6795;51.232;3.764;2023-02-15T13:07:33;14.00;99.90
13446;DHT22;6795;51.232;3.764;2023-02-15T13:10:01;14.30;99.90
13446;DHT22;6795;51.232;3.764;2023-02-15T13:12:31;14.50;99.90
13446;DHT22;6795;51.232;3.764;2023-02-15T13:15:01;14.80;99.90
13446;DHT22;6795;51.232;3.764;2023-02-15T13:17:32;15.10;99.90
13446;DHT22;6795;51.232;3.764;2023-02-15T13:20:04;15.10;99.90
13446;DHT22;6795;51.232;3.764;2023-02-15T13:22:40;15.10;99.90
13446;DHT22;6795;51.232;3.764;2023-02-15T13:25:14;15.20;99.90
13446;DHT22;6795;51.232;3.764;2023-02-15T13:27:48;15.40;99.90
13446;DHT22;6795;51.232;3.764;2023-02-15T13:30:23;15.50;99.90
13446;DHT22;6795;51.232;3.764;2023-02-15T13:32:57;15.20;99.90
13446;DHT22;6795;51.232;3.764;2023-02-15T13:35:35;15.30;99.90
13446;DHT22;6795;51.232;3.764;2023-02-15T13:38:19;15.20;99.90
13446;DHT22;6795;51.232;3.764;2023-02-15T13:40:55;15.10;99.90
13446;DHT22;6795;51.232;3.764;2023-02-15T13:43:33;15.10;99.90
13446;DHT22;6795;51.232;3.764;2023-02-15T13:46:15;15.10;99.90
13446;DHT22;6795;51.232;3.764;2023-02-15T13:48:54;15.10;99.90
13446;DHT22;6795;51.232;3.764;2023-02-15T13:51:36;14.80;99.90
13446;DHT22;6795;51.232;3.764;2023-02-15T13:54:28;14.60;99.90
13446;DHT22;6795;51.232;3.764;2023-02-15T13:57:08;14.50;99.90
13446;DHT22;6795;51.232;3.764;2023-02-15T13:59:52;14.50;99.90
13446;DHT22;6795;51.232;3.764;2023-02-15T14:02:48;14.80;99.90
13446;DHT22;6795;51.232;3.764;2023-02-15T14:05:29;14.90;99.90
13446;DHT22;6795;51.232;3.764;2023-02-15T14:08:08;14.90;99.90
13446;DHT22;6795;51.232;3.764;2023-02-15T14:10:44;14.90;99.90
13446;DHT22;6795;51.232;3.764;2023-02-15T14:16:20;14.80;99.90
13446;DHT22;6795;51.232;3.764;2023-02-15T14:18:57;14.70;99.90
13446;DHT22;6795;51.232;3.764;2023-02-15T14:21:31;14.60;99.90
13446;DHT22;6795;51.232;3.764;2023-02-15T14:24:11;14.70;99.90
13446;DHT22;6795;51.232;3.764;2023-02-15T14:26:49;14.50;99.90
13446;DHT22;6795;51.232;3.764;2023-02-15T14:29:28;14.50;99.90
13446;DHT22;6795;51.232;3.764;2023-02-15T14:32:08;14.50;99.90
13446;DHT22;6795;51.232;3.764;2023-02-15T14:34:44;14.30;99.90
13446;DHT22;6795;51.232;3.764;2023-02-15T14:37:19;14.20;99.90
13446;DHT22;6795;51.232;3.764;2023-02-15T14:39:55;14.20;99.90
13446;DHT22;6795;51.232;3.764;2023-02-15T14:42:48;14.20;99.90
13446;DHT22;6795;51.232;3.764;2023-02-15T14:45:24;14.40;99.90
13446;DHT22;6795;51.232;3.764;2023-02-15T14:48:07;14.30;99.90
13446;DHT22;6795;51.232;3.764;2023-02-15T14:50:42;14.10;99.90
13446;DHT22;6795;51.232;3.764;2023-02-15T14:53:17;13.70;99.90
13446;DHT22;6795;51.232;3.764;2023-02-15T14:56:06;13.30;99.90
13446;DHT22;6795;51.232;3.764;2023-02-15T14:58:37;12.90;99.90
13446;DHT22;6795;51.232;3.764;2023-02-15T15:01:07;12.80;99.90
13446;DHT22;6795;51.232;3.764;2023-02-15T15:03:43;12.80;99.90
13446;DHT22;6795;51.232;3.764;2023-02-15T15:06:25;12.70;99.90
13446;DHT22;6795;51.232;3.764;2023-02-15T15:08:59;12.50;99.90
13446;DHT22;6795;51.232;3.764;2023-02-15T15:11:42;12.50;99.90
13446;DHT22;6795;51.232;3.764;2023-02-15T15:14:36;12.40;99.90
13446;DHT22;6795;51.232;3.764;2023-02-15T15:17:06;12.30;99.90
13446;DHT22;6795;51.232;3.764;2023-02-15T15:19:58;12.20;99.90
13446;DHT22;6795;51.232;3.764;2023-02-15T15:22:31;12.10;99.90
13446;DHT22;6795;51.232;3.764;2023-02-15T15:25:01;12.00;99.90
13446;DHT22;6795;51.232;3.764;2023-02-15T15:27:50;11.80;99.90
13446;DHT22;6795;51.232;3.764;2023-02-15T15:37:18;11.50;99.90
13446;DHT22;6795;51.232;3.764;2023-02-15T15:40:21;11.50;99.90
13446;DHT22;6795;51.232;3.764;2023-02-15T15:43:30;11.40;99.90
13446;DHT22;6795;51.232;3.764;2023-02-15T15:46:28;11.40;99.90
13446;DHT22;6795;51.232;3.764;2023-02-15T15:49:05;11.40;99.90
13446;DHT22;6795;51.232;3.764;2023-02-15T15:51:34;11.40;99.90
13446;DHT22;6795;51.232;3.764;2023-02-15T15:54:15;11.20;99.90
13446;DHT22;6795;51.232;3.764;2023-02-15T15:56:48;11.20;99.90
13446;DHT22;6795;51.232;3.764;2023-02-15T15:59:20;11.10;99.90
13446;DHT22;6795;51.232;3.764;2023-02-15T16:01:50;11.10;99.90
13446;DHT22;6795;51.232;3.764;2023-02-15T16:04:26;11.10;99.90
13446;DHT22;6795;51.232;3.764;2023-02-15T16:06:57;11.00;99.90
13446;DHT22;6795;51.232;3.764;2023-02-15T16:09:28;10.80;99.90
13446;DHT22;6795;51.232;3.764;2023-02-15T16:11:58;10.80;99.90
13446;DHT22;6795;51.232;3.764;2023-02-15T16:14:30;10.70;99.90
13446;DHT22;6795;51.232;3.764;2023-02-15T16:17:02;10.60;99.90
13446;DHT22;6795;51.232;3.764;2023-02-15T16:19:34;10.50;99.90
13446;DHT22;6795;51.232;3.764;2023-02-15T16:22:09;10.50;99.90
13446;DHT22;6795;51.232;3.764;2023-02-15T16:24:54;10.50;99.90
13446;DHT22;6795;51.232;3.764;2023-02-15T16:27:33;10.40;99.90
13446;DHT22;6795;51.232;3.764;2023-02-15T16:30:26;10.40;99.90
13446;DHT22;6795;51.232;3.764;2023-02-15T16:33:03;10.30;99.90
13446;DHT22;6795;51.232;3.764;2023-02-15T16:35:32;10.30;99.90
13446;DHT22;6795;51.232;3.764;2023-02-15T16:38:01;10.30;99.90
13446;DHT22;6795;51.232;3.764;2023-02-15T16:40:42;10.20;99.90
13446;DHT22;6795;51.232;3.764;2023-02-15T16:43:16;10.10;99.90
13446;DHT22;6795;51.232;3.764;2023-02-15T16:45:45;10.20;99.90
13446;DHT22;6795;51.232;3.764;2023-02-15T16:48:18;10.10;99.90
13446;DHT22;6795;51.232;3.764;2023-02-15T16:50:51;9.90;99.90
13446;DHT22;6795;51.232;3.764;2023-02-15T16:53:23;9.80;99.90
13446;DHT22;6795;51.232;3.764;2023-02-15T16:55:55;9.70;99.90